createdAt,value
2023-01-03T00:01:53.747Z,83
2023-01-03T00:03:50.302Z,83
2023-01-03T00:07:52.922Z,83
2023-01-03T00:09:53.989Z,83
2023-01-03T00:13:56.993Z,83
2023-01-03T00:15:53.581Z,83
2023-01-03T00:17:53.534Z,84
2023-01-03T00:19:53.531Z,83
2023-01-03T00:21:51.483Z,83
2023-01-03T00:23:56.848Z,84
2023-01-03T00:25:53.287Z,84
2023-01-03T00:27:55.128Z,84
2023-01-03T00:29:53.870Z,84
2023-01-03T00:31:51.439Z,84
2023-01-03T00:33:59.597Z,84
2023-01-03T00:35:53.221Z,84
2023-01-03T00:37:53.058Z,84
2023-01-03T00:39:53.691Z,84
2023-01-03T00:43:56.958Z,84
2023-01-03T00:45:53.440Z,84
2023-01-03T00:49:52.582Z,84
2023-01-03T00:51:50.246Z,84
2023-01-03T00:53:53.640Z,84
2023-01-03T00:55:52.284Z,84
2023-01-03T00:57:53.407Z,84
2023-01-03T01:01:48.972Z,84
2023-01-03T01:03:52.181Z,84
2023-01-03T01:07:51.016Z,84
2023-01-03T01:09:53.655Z,84
2023-01-03T01:11:53.646Z,84
2023-01-03T01:13:52.940Z,84
2023-01-03T01:15:50.663Z,84
2023-01-03T01:19:55.717Z,84
2023-01-03T01:25:51.644Z,84
2023-01-03T01:27:52.210Z,84
2023-01-03T01:31:53.699Z,84
2023-01-03T01:33:52.805Z,84
2023-01-03T01:35:53.759Z,84
2023-01-03T01:37:52.153Z,84
2023-01-03T01:39:54.010Z,84
2023-01-03T01:43:48.873Z,84
2023-01-03T01:45:51.578Z,84
2023-01-03T01:47:53.584Z,84
2023-01-03T01:49:51.533Z,84
2023-01-03T01:51:50.834Z,84
2023-01-03T01:54:00.560Z,84
2023-01-03T01:55:50.567Z,84
2023-01-03T01:59:54.322Z,84
2023-01-03T02:01:53.882Z,85
2023-01-03T02:03:48.896Z,85
2023-01-03T02:07:50.352Z,85
2023-01-03T02:09:55.418Z,85
2023-01-03T02:11:53.661Z,84
2023-01-03T02:13:52.446Z,85
2023-01-03T02:15:52.407Z,85
2023-01-03T02:17:53.647Z,85
2023-01-03T02:19:50.249Z,85
2023-01-03T02:21:53.635Z,85
2023-01-03T02:23:54.248Z,85
2023-01-03T02:25:57.033Z,85
2023-01-03T02:27:52.487Z,85
2023-01-03T02:31:53.796Z,85
2023-01-03T02:33:48.878Z,85
2023-01-03T02:37:57.105Z,85
2023-01-03T02:39:55.042Z,85
2023-01-03T02:41:55.239Z,85
2023-01-03T02:43:59.933Z,85
2023-01-03T02:45:50.943Z,85
2023-01-03T02:49:55.324Z,85
2023-01-03T02:51:53.978Z,85
2023-01-03T02:53:52.393Z,85
2023-01-03T02:55:51.057Z,85
2023-01-03T02:57:51.183Z,85
2023-01-03T02:59:53.850Z,85
2023-01-03T03:01:54.100Z,85
2023-01-03T03:03:52.440Z,85
2023-01-03T03:05:52.461Z,85
2023-01-03T03:07:52.963Z,85
2023-01-03T03:09:48.854Z,85
2023-01-03T03:11:53.643Z,85
2023-01-03T03:13:56.626Z,85
2023-01-03T03:15:53.811Z,84
2023-01-03T03:17:53.650Z,85
2023-01-03T03:19:54.037Z,85
2023-01-03T03:21:56.833Z,85
2023-01-03T03:23:53.654Z,85
2023-01-03T03:25:52.719Z,85
2023-01-03T03:27:53.849Z,85
2023-01-03T03:29:53.693Z,85
2023-01-03T03:31:53.749Z,86
2023-01-03T03:33:52.624Z,86
2023-01-03T03:35:57.007Z,86
2023-01-03T03:37:56.806Z,86
2023-01-03T03:39:54.004Z,86
2023-01-03T03:41:53.401Z,86
2023-01-03T03:43:53.459Z,86
2023-01-03T03:45:50.391Z,86
2023-01-03T03:47:53.607Z,86
2023-01-03T03:49:51.980Z,86
2023-01-03T03:51:52.980Z,86
2023-01-03T03:53:53.908Z,86
2023-01-03T03:55:48.839Z,86
2023-01-03T03:57:56.695Z,86
2023-01-03T04:01:53.292Z,86
2023-01-03T04:03:48.945Z,86
2023-01-03T04:07:55.616Z,86
2023-01-03T04:09:51.646Z,86
2023-01-03T04:13:56.531Z,85
2023-01-03T04:15:57.089Z,85
2023-01-03T04:17:53.066Z,85
2023-01-03T04:19:53.972Z,85
2023-01-03T04:21:49.299Z,85
2023-01-03T04:23:53.826Z,85
2023-01-03T04:25:50.812Z,85
2023-01-03T04:27:50.836Z,85
2023-01-03T04:29:53.775Z,85
2023-01-03T04:31:49.024Z,85
2023-01-03T04:33:56.880Z,85
2023-01-03T04:39:53.812Z,85
2023-01-03T04:41:53.693Z,85
2023-01-03T04:43:53.584Z,85
2023-01-03T04:45:52.680Z,85
2023-01-03T04:47:53.890Z,85
2023-01-03T04:49:48.504Z,84
2023-01-03T04:51:57.165Z,84
2023-01-03T04:55:51.793Z,84
2023-01-03T04:57:56.847Z,84
2023-01-03T04:59:54.085Z,85
2023-01-03T05:01:51.369Z,85
2023-01-03T05:03:56.621Z,85
2023-01-03T05:07:56.680Z,85
2023-01-03T05:09:57.134Z,85
2023-01-03T05:13:49.293Z,86
2023-01-03T05:16:00.017Z,86
2023-01-03T05:19:53.439Z,85
2023-01-03T05:21:51.193Z,85
2023-01-03T05:23:53.087Z,85
2023-01-03T05:25:53.622Z,85
2023-01-03T05:27:49.310Z,85
2023-01-03T05:31:52.953Z,85
2023-01-03T05:33:52.118Z,86
2023-01-03T05:35:53.722Z,86
2023-01-03T05:37:53.806Z,86
2023-01-03T05:39:50.942Z,85
2023-01-03T05:44:05.223Z,85
2023-01-03T05:46:08.515Z,86
2023-01-03T05:48:09.355Z,85
2023-01-03T05:50:06.874Z,85
2023-01-03T05:52:06.069Z,85
2023-01-03T05:54:09.085Z,85
2023-01-03T05:56:07.970Z,85
2023-01-03T05:58:06.215Z,86
2023-01-03T06:02:09.583Z,86
2023-01-03T06:04:06.315Z,86
2023-01-03T06:08:08.851Z,86
2023-01-03T06:10:08.586Z,86
2023-01-03T06:12:09.162Z,86
2023-01-03T06:14:09.469Z,86
2023-01-03T06:16:09.873Z,86
2023-01-03T06:18:08.997Z,86
2023-01-03T06:20:06.326Z,86
2023-01-03T06:22:10.663Z,86
2023-01-03T06:24:09.312Z,86
2023-01-03T06:26:07.992Z,86
2023-01-03T06:28:08.013Z,86
2023-01-03T06:32:09.989Z,86
2023-01-03T06:34:07.496Z,86
2023-01-03T06:36:09.351Z,86
2023-01-03T06:38:06.542Z,86
2023-01-03T06:40:11.908Z,86
2023-01-03T06:44:07.166Z,86
2023-01-03T06:46:07.175Z,86
2023-01-03T06:48:09.083Z,86
2023-01-03T06:52:09.721Z,86
2023-01-03T06:54:08.974Z,86
2023-01-03T06:56:06.730Z,87
2023-01-03T06:58:06.415Z,86
2023-01-03T07:00:09.464Z,87
2023-01-03T07:02:06.434Z,87
2023-01-03T07:04:06.383Z,87
2023-01-03T07:06:09.554Z,87
2023-01-03T07:08:06.259Z,87
2023-01-03T07:10:08.787Z,87
2023-01-03T07:14:08.089Z,87
2023-01-03T07:16:09.500Z,87
2023-01-03T07:20:06.280Z,87
2023-01-03T07:22:09.424Z,87
2023-01-03T07:24:08.206Z,87
2023-01-03T07:26:06.355Z,87
2023-01-03T07:28:09.013Z,87
2023-01-03T07:32:06.697Z,87
2023-01-03T07:34:04.916Z,87
2023-01-03T07:38:09.669Z,87
2023-01-03T07:40:07.736Z,87
2023-01-03T07:42:08.180Z,87
2023-01-03T07:44:06.239Z,87
2023-01-03T07:46:08.100Z,87
2023-01-03T07:50:06.306Z,87
2023-01-03T07:52:06.059Z,87
2023-01-03T07:56:12.823Z,87
2023-01-03T07:58:09.441Z,87
2023-01-03T08:00:09.689Z,87
2023-01-03T08:02:06.425Z,88
2023-01-03T08:04:06.304Z,87
2023-01-03T08:08:06.274Z,87
2023-01-03T08:10:06.482Z,87
2023-01-03T08:14:04.787Z,88
2023-01-03T08:16:07.194Z,88
2023-01-03T08:20:06.293Z,87
2023-01-03T08:22:08.836Z,87
2023-01-03T08:26:07.021Z,86
2023-01-03T08:28:06.633Z,86
2023-01-03T08:32:06.304Z,87
2023-01-03T08:34:10.390Z,87
2023-01-03T08:38:06.381Z,87
2023-01-03T08:40:09.512Z,87
2023-01-03T08:46:08.523Z,87
2023-01-03T08:48:09.150Z,87
2023-01-03T08:50:06.438Z,87
2023-01-03T08:52:08.622Z,87
2023-01-03T08:54:09.067Z,86
2023-01-03T08:56:06.292Z,86
2023-01-03T08:58:06.297Z,86
2023-01-03T09:02:06.463Z,86
2023-01-03T09:04:09.642Z,85
2023-01-03T09:06:09.462Z,85
2023-01-03T09:08:09.413Z,85
2023-01-03T09:10:06.339Z,85
2023-01-03T09:12:09.180Z,84
2023-01-03T09:14:06.311Z,84
2023-01-03T09:16:09.853Z,84
2023-01-03T09:20:10.139Z,84
2023-01-03T09:22:07.089Z,84
2023-01-03T09:26:09.560Z,84
2023-01-03T09:28:06.318Z,84
2023-01-03T09:30:09.531Z,84
2023-01-03T09:32:06.395Z,83
2023-01-03T09:34:06.319Z,83
2023-01-03T09:38:09.254Z,84
2023-01-03T09:40:06.365Z,83
2023-01-03T09:42:08.433Z,83
2023-01-03T09:44:06.346Z,83
2023-01-03T09:46:06.426Z,84
2023-01-03T09:48:09.130Z,83
2023-01-03T09:50:50.521Z,83
2023-01-03T09:52:06.319Z,82
2023-01-03T09:56:05.926Z,82
2023-01-03T09:58:06.380Z,82
2023-01-03T10:02:06.587Z,81
2023-01-03T10:04:06.675Z,82
2023-01-03T10:06:09.226Z,82
2023-01-03T10:08:06.297Z,82
2023-01-03T10:10:10.594Z,82
2023-01-03T10:14:09.434Z,82
2023-01-03T10:16:06.387Z,82
2023-01-03T10:20:06.370Z,82
2023-01-03T10:22:07.517Z,82
2023-01-03T10:24:09.119Z,82
2023-01-03T10:26:09.526Z,82
2023-01-03T10:28:11.979Z,81
2023-01-03T10:30:09.434Z,80
2023-01-03T10:32:08.125Z,80
2023-01-03T10:34:09.461Z,79
2023-01-03T10:38:06.650Z,80
2023-01-03T10:40:06.336Z,82
2023-01-03T10:44:09.108Z,82
2023-01-03T10:46:06.313Z,82
2023-01-03T10:50:06.214Z,82
2023-01-03T10:52:06.775Z,83
2023-01-03T10:54:08.216Z,82
2023-01-03T10:56:06.358Z,82
2023-01-03T10:58:11.069Z,82
2023-01-03T11:04:07.921Z,83
2023-01-03T11:08:05.908Z,83
2023-01-03T11:10:05.240Z,82
2023-01-03T11:12:09.543Z,83
2023-01-03T11:14:06.328Z,83
2023-01-03T11:16:06.389Z,82
2023-01-03T11:18:09.372Z,82
2023-01-03T11:20:06.412Z,83
2023-01-03T11:22:06.338Z,82
2023-01-03T11:24:09.150Z,83
2023-01-03T11:26:07.614Z,83
2023-01-03T11:28:10.464Z,82
2023-01-03T11:32:06.360Z,82
2023-01-03T11:34:06.318Z,83
2023-01-03T11:36:09.394Z,83
2023-01-03T11:38:05.688Z,83
2023-01-03T11:40:08.107Z,82
2023-01-03T11:44:06.235Z,82
2023-01-03T11:46:09.672Z,82
2023-01-03T11:50:06.422Z,81
2023-01-03T11:52:06.341Z,81
2023-01-03T11:56:06.440Z,81
2023-01-03T11:58:06.397Z,81
2023-01-03T12:02:06.850Z,81
2023-01-03T12:04:07.709Z,81
2023-01-03T12:08:06.376Z,81
2023-01-03T12:10:03.002Z,81
2023-01-03T12:12:08.695Z,81
2023-01-03T12:14:12.612Z,81
2023-01-03T12:18:09.709Z,81
2023-01-03T12:20:06.399Z,81
2023-01-03T12:22:07.429Z,81
2023-01-03T12:26:06.383Z,81
2023-01-03T12:28:06.321Z,81
2023-01-03T12:32:07.788Z,81
2023-01-03T12:34:08.288Z,80
2023-01-03T12:36:09.601Z,78
2023-01-03T12:38:06.709Z,78
2023-01-03T12:48:09.262Z,77
2023-01-03T12:50:08.040Z,79
2023-01-03T12:54:09.417Z,81
2023-01-03T12:56:12.480Z,81
2023-01-03T12:58:09.528Z,81
2023-01-03T13:02:06.466Z,81
2023-01-03T13:04:06.346Z,81
2023-01-03T13:06:06.424Z,81
2023-01-03T13:08:06.304Z,81
2023-01-03T13:10:06.452Z,81
2023-01-03T13:14:06.321Z,81
2023-01-03T13:16:08.097Z,81
2023-01-03T13:18:09.293Z,81
2023-01-03T13:20:06.732Z,81
2023-01-03T13:22:06.381Z,81
2023-01-03T13:24:09.437Z,81
2023-01-03T13:26:06.321Z,81
2023-01-03T13:28:06.670Z,82
2023-01-03T13:32:06.348Z,82
2023-01-03T13:34:06.355Z,82
2023-01-03T13:36:09.138Z,82
2023-01-03T13:38:09.463Z,82
2023-01-03T13:40:09.616Z,81
2023-01-03T13:44:09.538Z,81
2023-01-03T13:46:06.416Z,82
2023-01-03T13:50:07.570Z,82
2023-01-03T13:54:12.930Z,82
2023-01-03T13:58:09.554Z,82
2023-01-03T14:00:09.384Z,82
2023-01-03T14:02:06.553Z,81
2023-01-03T14:04:06.317Z,81
2023-01-03T14:06:09.577Z,81
2023-01-03T14:08:06.363Z,81
2023-01-03T14:10:06.007Z,81
2023-01-03T14:12:09.375Z,81
2023-01-03T14:14:03.409Z,82
2023-01-03T14:16:06.471Z,81
2023-01-03T14:18:09.349Z,82
2023-01-03T14:20:09.684Z,82
2023-01-03T14:22:27.110Z,82
2023-01-03T14:26:07.817Z,83
2023-01-03T14:28:06.759Z,83
2023-01-03T14:32:07.358Z,83
2023-01-03T14:34:06.374Z,83
2023-01-03T14:38:08.010Z,83
2023-01-03T14:40:07.946Z,83
2023-01-03T14:42:09.423Z,83
2023-01-03T14:44:06.524Z,83
2023-01-03T14:46:06.383Z,83
2023-01-03T14:50:09.499Z,83
2023-01-03T14:52:06.345Z,83
2023-01-03T14:56:06.437Z,83
2023-01-03T14:58:06.281Z,83
2023-01-03T15:00:09.202Z,84
2023-01-03T15:02:08.460Z,84
2023-01-03T15:04:06.390Z,84
2023-01-03T15:06:09.653Z,84
2023-01-03T15:08:09.820Z,84
2023-01-03T15:10:06.233Z,84
2023-01-03T15:12:09.704Z,85
2023-01-03T15:14:06.702Z,85
2023-01-03T15:16:06.358Z,85
2023-01-03T15:18:09.844Z,85
2023-01-03T15:22:06.968Z,85
2023-01-03T15:24:09.343Z,85
2023-01-03T15:26:06.353Z,85
2023-01-03T15:28:08.065Z,85
2023-01-03T15:30:14.146Z,85
2023-01-03T15:32:06.521Z,86
2023-01-03T15:34:06.428Z,86
2023-01-03T15:38:06.412Z,86
2023-01-03T15:40:06.390Z,86
2023-01-03T15:44:06.524Z,87
2023-01-03T15:46:09.559Z,87
2023-01-03T15:50:06.328Z,87
2023-01-03T15:52:06.336Z,87
2023-01-03T15:54:09.204Z,87
2023-01-03T15:56:06.284Z,87
2023-01-03T15:58:06.405Z,87
2023-01-03T16:00:09.293Z,87
2023-01-03T16:02:06.451Z,87
2023-01-03T16:04:09.491Z,87
2023-01-03T16:06:09.212Z,88
2023-01-03T16:08:12.516Z,87
2023-01-03T16:10:06.386Z,88
2023-01-03T16:12:09.153Z,88
2023-01-03T16:14:06.383Z,88
2023-01-03T16:16:06.309Z,88
2023-01-03T16:20:06.371Z,88
2023-01-03T16:22:33.683Z,88
2023-01-03T16:26:06.654Z,88
2023-01-03T16:28:12.371Z,88
2023-01-03T16:32:09.477Z,89
2023-01-03T16:34:06.256Z,89
2023-01-03T16:38:06.835Z,89
2023-01-03T16:40:03.579Z,89
2023-01-03T16:44:09.178Z,89
2023-01-03T16:46:03.140Z,89
2023-01-03T16:48:09.403Z,89
2023-01-03T16:50:08.125Z,89
2023-01-03T16:52:06.476Z,89
2023-01-03T16:54:09.380Z,90
2023-01-03T16:56:06.349Z,90
2023-01-03T17:00:07.932Z,90
2023-01-03T17:02:06.727Z,90
2023-01-03T17:04:06.405Z,89
2023-01-03T17:10:06.384Z,90
2023-01-03T17:14:06.372Z,90
2023-01-03T17:16:06.692Z,90
2023-01-03T17:20:06.713Z,90
2023-01-03T17:22:06.455Z,89
2023-01-03T17:26:06.403Z,89
2023-01-03T17:28:06.423Z,89
2023-01-03T17:30:09.447Z,90
2023-01-03T17:32:06.399Z,90
2023-01-03T17:34:08.420Z,90
2023-01-03T17:36:09.413Z,90
2023-01-03T17:38:25.007Z,90
2023-01-03T17:40:07.195Z,90
2023-01-03T17:42:09.364Z,90
2023-01-03T17:44:09.535Z,90
2023-01-03T17:50:06.346Z,90
2023-01-03T17:52:07.656Z,90
2023-01-03T17:56:06.365Z,90
2023-01-03T17:58:06.363Z,90
2023-01-03T18:00:09.277Z,90
2023-01-03T18:02:06.133Z,90
2023-01-03T18:04:06.200Z,90
2023-01-03T18:06:09.760Z,90
2023-01-03T18:08:06.382Z,91
2023-01-03T18:10:06.409Z,91
2023-01-03T18:12:09.311Z,91
2023-01-03T18:14:05.977Z,91
2023-01-03T18:16:08.275Z,91
2023-01-03T18:18:08.345Z,91
2023-01-03T18:20:06.719Z,91
2023-01-03T18:22:09.600Z,91
2023-01-03T18:26:12.545Z,91
2023-01-03T18:28:05.953Z,91
2023-01-03T18:30:09.389Z,91
2023-01-03T18:32:06.440Z,91
2023-01-03T18:34:06.445Z,91
2023-01-03T18:38:06.422Z,91
2023-01-03T18:42:09.421Z,91
2023-01-03T18:44:06.501Z,91
2023-01-03T18:46:06.412Z,91
2023-01-03T18:48:09.467Z,91
2023-01-03T18:50:09.477Z,91
2023-01-03T18:52:06.438Z,91
2023-01-03T18:54:09.439Z,91
2023-01-03T18:56:06.392Z,91
2023-01-03T18:58:08.519Z,91
2023-01-03T19:00:09.254Z,91
2023-01-03T19:02:06.613Z,91
2023-01-03T19:04:03.650Z,91
2023-01-03T19:08:06.020Z,91
2023-01-03T19:10:06.366Z,91
2023-01-03T19:14:06.423Z,91
2023-01-03T19:16:09.718Z,91
2023-01-03T19:18:12.738Z,92
2023-01-03T19:20:06.036Z,92
2023-01-03T19:22:06.365Z,92
2023-01-03T19:24:09.641Z,92
2023-01-03T19:26:07.529Z,92
2023-01-03T19:28:06.380Z,92
2023-01-03T19:32:06.461Z,92
2023-01-03T19:34:09.349Z,92
2023-01-03T19:36:09.449Z,92
2023-01-03T19:38:06.355Z,92
2023-01-03T19:40:06.373Z,92
2023-01-03T19:42:08.924Z,92
2023-01-03T19:44:08.031Z,92
2023-01-03T19:46:09.488Z,92
2023-01-03T19:50:11.410Z,92
2023-01-03T19:52:09.509Z,92
2023-01-03T19:56:06.462Z,92
2023-01-03T19:58:07.024Z,92
2023-01-03T20:02:24.318Z,92
2023-01-03T20:04:06.731Z,92
2023-01-03T20:06:08.367Z,92
2023-01-03T20:08:12.352Z,92
2023-01-03T20:10:06.491Z,92
2023-01-03T20:12:09.335Z,92
2023-01-03T20:14:08.903Z,92
2023-01-03T20:16:08.125Z,92
2023-01-03T20:18:09.345Z,92
2023-01-03T20:20:06.590Z,92
2023-01-03T20:22:19.733Z,92
2023-01-03T20:26:06.457Z,92
2023-01-03T20:28:06.773Z,92
2023-01-03T20:30:09.355Z,92
2023-01-03T20:34:06.464Z,92
2023-01-03T20:38:06.450Z,92
2023-01-03T20:40:06.447Z,92
2023-01-03T20:42:07.369Z,92
2023-01-03T20:44:09.564Z,92
2023-01-03T20:46:06.505Z,92
2023-01-03T20:48:09.425Z,92
2023-01-03T20:50:06.425Z,92
2023-01-03T20:56:06.089Z,92
2023-01-03T20:58:09.060Z,92
2023-01-03T21:02:06.622Z,92
2023-01-03T21:04:08.090Z,92
2023-01-03T21:06:09.385Z,92
2023-01-03T21:08:09.281Z,92
2023-01-03T21:10:06.395Z,92
2023-01-03T21:14:08.603Z,92
2023-01-03T21:16:06.411Z,92
2023-01-03T21:18:09.248Z,92
2023-01-03T21:20:06.402Z,92
2023-01-03T21:22:06.386Z,92
2023-01-03T21:26:10.049Z,92
2023-01-03T21:28:06.506Z,92
2023-01-03T21:30:09.046Z,92
2023-01-03T21:34:06.410Z,92
2023-01-03T21:38:09.564Z,92
2023-01-03T21:40:06.414Z,92
2023-01-03T21:42:09.242Z,92
2023-01-03T21:44:09.736Z,92
2023-01-03T21:46:09.204Z,92
2023-01-03T21:50:06.370Z,92
2023-01-03T21:52:09.577Z,93
2023-01-03T21:56:09.539Z,93
2023-01-03T21:58:06.751Z,92
2023-01-03T22:00:09.341Z,93
2023-01-03T22:02:09.454Z,92
2023-01-03T22:04:06.424Z,93
2023-01-03T22:06:09.190Z,92
2023-01-03T22:08:08.747Z,93
2023-01-03T22:10:09.387Z,93
2023-01-03T22:14:09.564Z,93
2023-01-03T22:16:06.440Z,93
2023-01-03T22:18:09.345Z,93
2023-01-03T22:20:06.458Z,93
2023-01-03T22:22:09.428Z,93
2023-01-03T22:26:06.647Z,92
2023-01-03T22:28:06.385Z,92
2023-01-03T22:30:08.766Z,92
2023-01-03T22:32:06.137Z,92
2023-01-03T22:34:06.480Z,92
2023-01-03T22:38:06.452Z,92
2023-01-03T22:40:06.596Z,92
2023-01-03T22:44:09.281Z,92
2023-01-03T22:50:06.613Z,92
2023-01-03T22:52:06.498Z,92
2023-01-03T22:54:07.928Z,92
2023-01-03T22:56:07.340Z,92
2023-01-03T22:58:06.935Z,92
2023-01-03T23:00:09.557Z,92
2023-01-03T23:02:06.694Z,92
2023-01-03T23:04:06.424Z,92
2023-01-03T23:08:09.680Z,92
2023-01-03T23:10:09.628Z,92
2023-01-03T23:12:09.330Z,91
2023-01-03T23:14:09.551Z,92
2023-01-03T23:16:06.447Z,92
2023-01-03T23:20:08.892Z,91
2023-01-03T23:22:06.786Z,91
2023-01-03T23:26:07.663Z,91
2023-01-03T23:28:06.718Z,91
2023-01-03T23:32:06.480Z,91
2023-01-03T23:34:06.450Z,91
2023-01-03T23:36:09.349Z,91
2023-01-03T23:38:09.654Z,91
2023-01-03T23:40:06.453Z,92
2023-01-03T23:44:06.212Z,92
2023-01-03T23:46:04.931Z,92
2023-01-03T23:50:12.672Z,92
2023-01-03T23:52:06.443Z,92
2023-01-03T23:56:06.398Z,92
